Aviation Digital Data Service (ADDS)

Output produced by METARs form (1840 UTC 18 June 2019)
found at http://www.aviationweather.gov/metar/data/
 
LATI 181820Z VRB02KT CAVOK 25/21 Q1013 NOSIG
TAF LATI 181700Z 1818/1918 VRB04KT CAVOK 
     TEMPO 1910/1918 34012KT FEW030CB SCT090